Time;durP1;ratioP1;P1;durP2;ratioP2;P2;SDS_P1;SDS_P2;PMS_P1;PMS_P2;Temp;Humidity;BMP_temperature;BMP_pressure;BME280_temperature;BME280_humidity;BME280_pressure;Samples;Min_cycle;Max_cycle;Signal;HPM_P1;HPM_P2
2022/10/20 00:00:41;;;;;;;5.30;3.53;;;;;;;8.16;93.23;101703.88;5065672;28;20064;-88
2022/10/20 00:03:06;;;;;;;9.63;4.82;;;;;;;8.20;93.13;101710.50;5051656;28;20078;-87
2022/10/20 00:05:32;;;;;;;12.93;5.10;;;;;;;8.15;93.88;101702.22;5066337;28;20032;-87
2022/10/20 00:07:57;;;;;;;9.43;5.32;;;;;;;8.24;93.69;101712.00;5046732;28;20036;-86
2022/10/20 00:10:22;;;;;;;8.13;5.18;;;;;;;8.26;93.76;101705.03;5066060;28;20377;-88
2022/10/20 00:12:48;;;;;;;10.15;5.43;;;;;;;8.25;94.10;101698.16;5065772;28;20472;-88
2022/10/20 00:15:13;;;;;;;8.07;4.93;;;;;;;8.31;93.91;101702.97;5048494;28;20060;-85
2022/10/20 00:17:38;;;;;;;13.88;4.93;;;;;;;8.30;94.09;101701.31;5065412;28;20484;-87
2022/10/20 00:20:04;;;;;;;9.65;5.47;;;;;;;8.30;93.97;101696.16;5062785;28;20039;-87
2022/10/20 00:22:30;;;;;;;8.80;5.60;;;;;;;8.31;93.96;101694.38;5057415;28;20114;-87
2022/10/20 00:24:56;;;;;;;11.25;5.43;;;;;;;8.37;94.19;101687.16;5053804;28;20028;-87
2022/10/20 00:27:21;;;;;;;9.80;5.63;;;;;;;8.37;94.10;101671.66;5046747;28;20029;-86
2022/10/20 00:29:47;;;;;;;12.82;5.65;;;;;;;8.41;94.32;101680.88;5047386;28;20041;-88
2022/10/20 00:32:13;;;;;;;11.00;5.18;;;;;;;8.45;94.31;101672.03;5064254;28;20024;-85
2022/10/20 00:34:38;;;;;;;9.45;5.28;;;;;;;8.46;94.14;101665.94;5065131;28;20032;-86
2022/10/20 00:37:03;;;;;;;9.43;5.00;;;;;;;8.51;94.06;101669.06;5062451;28;20060;-86
2022/10/20 00:39:29;;;;;;;11.98;5.55;;;;;;;8.47;93.99;101646.06;5046771;28;20025;-86
2022/10/20 00:41:55;;;;;;;9.80;5.45;;;;;;;8.44;94.40;101641.94;5042099;28;20012;-87
2022/10/20 00:44:47;;;;;;;10.00;5.68;;;;;;;8.56;94.07;101655.06;5055865;28;20575;-88
2022/10/20 00:47:24;;;;;;;12.07;5.72;;;;;;;8.49;93.94;101645.09;5062109;28;20024;-87
2022/10/20 00:49:50;;;;;;;10.55;5.78;;;;;;;8.55;94.05;101658.56;5062511;28;20055;-87
2022/10/20 00:52:19;;;;;;;11.45;5.68;;;;;;;8.57;94.36;101662.72;5081848;28;20031;-86
2022/10/20 00:54:44;;;;;;;12.18;7.20;;;;;;;8.57;94.16;101669.63;5075279;28;20024;-87
2022/10/20 00:57:10;;;;;;;9.65;5.63;;;;;;;8.49;94.56;101655.41;5034305;28;20360;-86
2022/10/20 00:59:38;;;;;;;10.35;6.25;;;;;;;8.56;94.03;101665.41;5047455;28;20025;-87
2022/10/20 01:02:05;;;;;;;8.70;5.20;;;;;;;8.50;94.51;101656.25;5065489;28;20488;-87
2022/10/20 01:04:31;;;;;;;10.50;5.80;;;;;;;8.54;94.33;101646.53;5047035;28;20028;-86
2022/10/20 01:06:57;;;;;;;9.55;5.53;;;;;;;8.52;94.65;101637.13;5065044;28;20029;-88
2022/10/20 01:09:48;;;;;;;10.25;6.13;;;;;;;8.44;94.65;101631.59;5067862;28;20037;-88
2022/10/20 01:12:44;;;;;;;11.35;6.38;;;;;;;8.52;94.64;101634.53;5053928;28;20060;-86
2022/10/20 01:15:16;;;;;;;11.10;6.65;;;;;;;8.48;94.66;101622.72;5038647;23;20132;-87
2022/10/20 01:18:12;;;;;;;9.80;6.00;;;;;;;8.52;94.51;101629.38;5025742;28;20040;-88
2022/10/20 01:21:34;;;;;;;13.48;6.75;;;;;;;8.39;93.95;101594.84;5040601;28;20103;-87
2022/10/20 01:24:45;;;;;;;10.43;6.32;;;;;;;8.50;94.82;101620.88;5020464;28;20025;-87
2022/10/20 01:27:25;;;;;;;13.77;6.75;;;;;;;8.47;95.05;101615.88;5041062;28;20029;-86
2022/10/20 01:30:11;;;;;;;11.10;6.00;;;;;;;8.47;94.71;101595.19;5027730;28;20072;-87
2022/10/20 01:32:45;;;;;;;10.65;6.57;;;;;;;8.46;94.77;101601.28;5044622;28;20115;-88
2022/10/20 01:35:32;;;;;;;12.27;5.82;;;;;;;8.44;94.81;101584.22;5042991;28;20154;-86
2022/10/20 01:38:03;;;;;;;9.85;6.13;;;;;;;8.35;95.06;101593.31;5016550;28;20540;-86
2022/10/20 01:41:02;;;;;;;10.90;5.97;;;;;;;8.37;94.91;101594.13;5044205;28;20020;-87
2022/10/20 01:43:33;;;;;;;10.55;6.03;;;;;;;8.34;94.81;101589.09;5019325;28;20488;-87
2022/10/20 01:46:00;;;;;;;12.30;6.70;;;;;;;8.26;94.96;101591.31;5045734;28;20040;-87
2022/10/20 01:48:30;;;;;;;10.95;6.60;;;;;;;8.25;95.15;101568.94;5023848;28;20040;-86
2022/10/20 01:50:56;;;;;;;15.07;6.15;;;;;;;8.19;94.65;101558.97;5039675;28;20478;-87
2022/10/20 01:53:21;;;;;;;11.80;6.90;;;;;;;8.23;94.92;101570.81;5007259;28;20152;-87
2022/10/20 01:55:53;;;;;;;10.82;7.10;;;;;;;8.16;95.16;101554.84;5041140;28;20029;-87
2022/10/20 01:58:41;;;;;;;15.57;6.93;;;;;;;8.07;95.59;101528.72;5035337;28;20033;-87
2022/10/20 02:01:42;;;;;;;12.68;6.35;;;;;;;8.17;95.37;101553.09;5045139;28;20409;-86
2022/10/20 02:04:09;;;;;;;12.27;6.13;;;;;;;8.11;95.35;101551.69;5008360;28;20048;-86
2022/10/20 02:06:40;;;;;;;11.63;6.53;;;;;;;8.12;95.43;101540.44;5043537;28;20033;-85
2022/10/20 02:09:22;;;;;;;13.45;6.38;;;;;;;8.09;95.20;101542.38;5046285;28;20473;-86
2022/10/20 02:12:12;;;;;;;10.95;6.55;;;;;;;7.97;95.71;101518.94;5024736;28;20137;-86
2022/10/20 02:14:38;;;;;;;10.43;6.22;;;;;;;8.01;95.06;101534.25;5041273;28;20047;-86
2022/10/20 02:17:11;;;;;;;12.02;7.05;;;;;;;7.99;95.76;101522.25;5047234;28;20381;-86
2022/10/20 02:19:41;;;;;;;11.05;6.43;;;;;;;7.88;95.25;101526.41;5031690;28;20063;-86
2022/10/20 02:22:08;;;;;;;10.77;6.40;;;;;;;7.92;95.73;101536.47;5050075;28;20481;-85
2022/10/20 02:24:36;;;;;;;14.55;7.60;;;;;;;7.97;96.23;101555.09;5048133;28;20108;-84
2022/10/20 02:27:09;;;;;;;11.73;6.85;;;;;;;7.94;96.13;101550.09;5037707;28;20030;-85
2022/10/20 02:29:41;;;;;;;11.30;6.65;;;;;;;7.92;96.14;101544.22;5011726;28;20465;-86
2022/10/20 02:32:09;;;;;;;14.77;7.72;;;;;;;7.91;96.86;101534.81;5049338;28;20116;-86
2022/10/20 02:34:34;;;;;;;11.55;6.75;;;;;;;7.93;96.60;101537.28;5046854;28;20021;-85
2022/10/20 02:37:00;;;;;;;13.07;7.57;;;;;;;7.90;96.59;101533.13;5029881;28;20383;-85
2022/10/20 02:39:25;;;;;;;15.00;8.48;;;;;;;7.93;96.99;101525.19;5044201;28;20063;-85
2022/10/20 02:41:51;;;;;;;13.70;7.20;;;;;;;7.87;96.67;101507.50;5029963;28;20029;-86
2022/10/20 02:44:16;;;;;;;14.30;7.90;;;;;;;7.89;96.43;101521.13;5041092;28;20025;-85
2022/10/20 02:46:42;;;;;;;11.77;6.63;;;;;;;7.87;96.73;101522.97;5028952;28;20709;-86
2022/10/20 02:49:07;;;;;;;12.32;6.97;;;;;;;7.91;96.35;101515.88;5030593;28;20057;-86
2022/10/20 02:51:32;;;;;;;12.38;7.53;;;;;;;7.88;96.70;101503.97;5044725;28;20108;-84
2022/10/20 02:53:58;;;;;;;13.82;8.10;;;;;;;7.84;96.65;101502.50;5047209;28;20024;-86
2022/10/20 02:56:23;;;;;;;14.25;7.90;;;;;;;7.85;96.91;101498.97;5039813;28;20115;-86
2022/10/20 02:58:49;;;;;;;12.13;7.18;;;;;;;7.82;97.05;101475.94;5047551;28;20029;-86
2022/10/20 03:01:14;;;;;;;11.23;6.75;;;;;;;7.76;96.72;101473.72;5047572;28;20368;-86
2022/10/20 03:03:39;;;;;;;11.50;6.95;;;;;;;7.82;96.81;101478.53;5029315;28;20025;-86
2022/10/20 03:06:14;;;;;;;12.27;6.88;;;;;;;7.70;96.75;101458.59;5026100;28;20083;-85
2022/10/20 03:08:40;;;;;;;13.35;7.53;;;;;;;7.78;96.45;101471.03;5041514;28;20071;-86
2022/10/20 03:11:06;;;;;;;12.23;6.93;;;;;;;7.73;96.17;101453.22;5029301;28;20500;-84
2022/10/20 03:13:31;;;;;;;16.73;7.40;;;;;;;7.65;96.92;101439.97;5046049;28;20033;-86
2022/10/20 03:15:57;;;;;;;12.85;7.22;;;;;;;7.68;96.96;101445.78;5047667;28;20075;-86
2022/10/20 03:18:22;;;;;;;14.25;7.15;;;;;;;7.69;96.77;101437.13;5046890;28;20028;-86
2022/10/20 03:20:51;;;;;;;11.95;7.07;;;;;;;7.67;96.98;101432.94;5047334;28;20025;-86
2022/10/20 03:23:17;;;;;;;12.32;7.60;;;;;;;7.45;96.94;101398.09;5046818;28;20025;-86
2022/10/20 03:25:42;;;;;;;14.38;7.47;;;;;;;7.61;97.13;101415.25;5046428;28;20040;-86
2022/10/20 03:28:07;;;;;;;11.15;6.60;;;;;;;7.63;96.96;101421.16;5028947;28;20020;-86
2022/10/20 03:30:33;;;;;;;11.23;6.75;;;;;;;7.62;97.12;101419.47;5046686;28;20040;-86
2022/10/20 03:32:58;;;;;;;13.32;7.25;;;;;;;7.56;96.97;101425.00;5047393;28;20147;-86
2022/10/20 03:35:24;;;;;;;13.40;6.97;;;;;;;7.59;97.64;101424.84;5028662;28;20120;-86
2022/10/20 03:37:49;;;;;;;10.10;5.60;;;;;;;7.61;97.32;101417.81;5047142;28;20025;-85
2022/10/20 03:40:14;;;;;;;12.52;7.32;;;;;;;7.53;97.80;101397.63;5029597;28;20132;-87
2022/10/20 03:42:40;;;;;;;15.20;7.28;;;;;;;7.51;97.73;101390.91;5038570;28;20108;-86
2022/10/20 03:45:06;;;;;;;12.45;7.85;;;;;;;7.53;97.47;101394.22;5029381;28;20388;-85
2022/10/20 03:47:31;;;;;;;13.88;7.10;;;;;;;7.60;97.95;101395.53;5028700;28;20309;-85
2022/10/20 03:49:56;;;;;;;12.43;7.22;;;;;;;7.51;98.24;101375.41;5046254;28;20024;-84
2022/10/20 03:52:22;;;;;;;12.40;8.10;;;;;;;7.48;98.27;101370.44;5046644;28;20138;-86
2022/10/20 03:54:47;;;;;;;14.25;8.32;;;;;;;7.56;98.29;101383.72;5045982;28;20025;-86
2022/10/20 03:57:13;;;;;;;12.45;7.70;;;;;;;7.56;98.42;101370.81;5045982;28;20099;-84
2022/10/20 03:59:38;;;;;;;12.35;7.65;;;;;;;7.58;98.11;101372.38;5028576;28;20471;-87
2022/10/20 04:02:03;;;;;;;13.98;7.80;;;;;;;7.62;98.49;101384.16;5020828;28;20036;-88
2022/10/20 04:04:29;;;;;;;14.60;7.97;;;;;;;7.60;99.01;101380.84;5045851;28;20036;-86
2022/10/20 04:06:54;;;;;;;14.68;7.28;;;;;;;7.67;99.14;101396.81;5046718;28;20039;-86
2022/10/20 04:09:19;;;;;;;13.60;8.85;;;;;;;7.67;99.42;101371.81;5045957;28;20025;-87
2022/10/20 04:11:45;;;;;;;15.05;9.35;;;;;;;7.72;99.78;101379.28;5046720;28;20579;-84
2022/10/20 04:14:10;;;;;;;17.50;10.05;;;;;;;7.75;100.00;101358.47;5046505;28;20056;-86
2022/10/20 04:16:35;;;;;;;16.65;7.95;;;;;;;7.84;100.00;101351.88;5046281;28;20032;-87
2022/10/20 04:19:01;;;;;;;13.57;8.27;;;;;;;8.02;100.00;101362.81;5022814;28;20029;-83
2022/10/20 04:21:26;;;;;;;14.60;8.55;;;;;;;8.11;100.00;101360.50;5043871;28;20468;-86
2022/10/20 04:23:52;;;;;;;17.70;9.18;;;;;;;8.03;100.00;101338.66;5043124;28;20074;-87
2022/10/20 04:26:17;;;;;;;16.38;9.02;;;;;;;8.18;100.00;101340.28;5044827;28;20119;-87
2022/10/20 04:28:42;;;;;;;17.02;9.68;;;;;;;8.22;100.00;101347.75;5046476;28;20036;-87
2022/10/20 04:31:08;;;;;;;14.57;9.65;;;;;;;8.35;100.00;101358.13;5044487;28;20036;-87
2022/10/20 04:33:34;;;;;;;14.57;9.65;;;;;;;8.36;100.00;101339.13;5046854;28;20029;-85
2022/10/20 04:36:10;;;;;;;16.23;9.38;;;;;;;8.45;100.00;101348.88;5045586;28;20036;-86
2022/10/20 04:38:36;;;;;;;17.73;9.90;;;;;;;8.43;100.00;101335.25;5039736;28;20063;-87
2022/10/20 04:41:03;;;;;;;16.27;8.48;;;;;;;8.46;100.00;101324.69;5031386;28;20044;-88
2022/10/20 04:43:29;;;;;;;15.10;9.65;;;;;;;8.50;100.00;101312.41;5048065;28;20021;-88
2022/10/20 04:46:01;;;;;;;16.30;9.63;;;;;;;8.59;100.00;101309.19;5031702;28;20329;-86
2022/10/20 04:48:27;;;;;;;16.10;9.25;;;;;;;8.58;99.90;101291.22;5048403;28;20029;-86
2022/10/20 04:51:19;;;;;;;14.43;8.32;;;;;;;8.69;99.82;101309.44;5049795;28;20021;-88
2022/10/20 04:53:44;;;;;;;15.85;8.77;;;;;;;8.62;100.00;101295.25;5021579;28;20037;-86
2022/10/20 04:56:17;;;;;;;15.45;8.95;;;;;;;8.67;99.40;101306.97;5031334;28;20040;-85
2022/10/20 04:58:46;;;;;;;16.13;9.10;;;;;;;8.71;99.50;101308.41;5049639;28;20537;-88
2022/10/20 05:01:11;;;;;;;13.52;8.20;;;;;;;8.71;99.52;101305.81;5048604;28;20099;-85
2022/10/20 05:03:37;;;;;;;15.68;9.07;;;;;;;8.75;99.58;101294.34;5028319;28;20027;-85
2022/10/20 05:06:09;;;;;;;10.63;6.05;;;;;;;8.78;99.40;101288.97;5031463;28;20029;-86
2022/10/20 05:08:34;;;;;;;16.45;8.93;;;;;;;8.72;99.22;101285.97;5031226;28;20024;-89
2022/10/20 05:11:00;;;;;;;15.82;9.65;;;;;;;8.72;99.46;101294.56;5026925;28;20070;-87
2022/10/20 05:13:25;;;;;;;17.55;8.77;;;;;;;8.80;98.83;101296.63;5020596;28;20044;-86
2022/10/20 05:15:51;;;;;;;15.88;8.10;;;;;;;8.69;99.23;101274.06;5036392;28;20068;-88
2022/10/20 05:18:17;;;;;;;13.25;8.55;;;;;;;8.73;99.45;101277.28;5024109;28;20029;-88
2022/10/20 05:20:42;;;;;;;16.52;9.88;;;;;;;8.79;98.85;101294.97;5027107;28;20017;-86
2022/10/20 05:23:07;;;;;;;15.43;7.45;;;;;;;8.77;99.19;101281.28;5042691;28;20449;-88
2022/10/20 05:25:35;;;;;;;17.02;8.52;;;;;;;8.81;98.80;101277.59;5025918;28;20515;-87
2022/10/20 05:28:01;;;;;;;16.83;9.57;;;;;;;8.74;98.80;101255.66;5037577;28;20032;-88
2022/10/20 05:30:26;;;;;;;17.55;9.48;;;;;;;8.70;99.30;101244.69;5040054;28;20021;-87
2022/10/20 05:32:51;;;;;;;17.30;9.82;;;;;;;8.72;98.71;101242.00;5023492;28;20033;-85
2022/10/20 05:35:17;;;;;;;15.25;10.00;;;;;;;8.72;98.97;101250.59;5026714;28;20412;-87
2022/10/20 05:37:42;;;;;;;15.68;9.77;;;;;;;8.81;98.46;101272.41;5044906;28;20047;-88
2022/10/20 05:40:08;;;;;;;14.27;8.70;;;;;;;8.69;99.19;101260.31;5042184;28;20017;-87
2022/10/20 05:42:34;;;;;;;16.73;10.73;;;;;;;8.74;98.99;101277.16;5023384;28;20060;-87
2022/10/20 05:44:59;;;;;;;16.90;10.35;;;;;;;8.80;98.97;101281.09;5042199;28;20535;-86
2022/10/20 05:47:25;;;;;;;15.95;9.15;;;;;;;8.73;98.75;101254.00;5025816;28;20143;-87
2022/10/20 05:49:50;;;;;;;15.02;9.10;;;;;;;8.82;99.05;101237.03;5044207;28;20035;-87
2022/10/20 05:52:16;;;;;;;16.27;9.02;;;;;;;8.69;98.92;101212.00;5016154;28;20050;-86
2022/10/20 05:54:41;;;;;;;17.67;9.50;;;;;;;8.67;98.72;101228.56;5031836;28;20025;-87
2022/10/20 05:57:06;;;;;;;14.15;7.88;;;;;;;8.75;98.60;101241.78;5033100;28;20380;-88
2022/10/20 05:59:31;;;;;;;15.13;8.65;;;;;;;8.74;98.65;101246.13;5030661;28;20049;-86
2022/10/20 06:01:57;;;;;;;14.43;9.13;;;;;;;8.79;98.71;101263.94;5032219;28;20120;-87
2022/10/20 06:04:22;;;;;;;13.48;8.70;;;;;;;8.83;98.84;101265.41;5050008;28;20484;-87
2022/10/20 06:06:49;;;;;;;13.90;8.48;;;;;;;8.84;98.85;101259.28;5048420;28;20107;-87
2022/10/20 06:09:15;;;;;;;13.93;8.68;;;;;;;8.81;98.76;101263.81;5032527;28;20017;-88
2022/10/20 06:11:41;;;;;;;16.40;8.82;;;;;;;8.75;98.93;101244.38;5029257;28;20029;-87
2022/10/20 06:14:08;;;;;;;12.93;8.70;;;;;;;8.79;98.70;101263.94;5050406;28;20368;-87
2022/10/20 06:16:34;;;;;;;15.00;8.73;;;;;;;8.83;98.97;101278.34;5030097;28;20033;-88
2022/10/20 06:18:59;;;;;;;14.48;8.38;;;;;;;8.63;99.05;101237.44;5051461;28;20059;-87
2022/10/20 06:21:28;;;;;;;16.83;9.32;;;;;;;8.84;99.06;101272.22;5045453;28;20028;-86
2022/10/20 06:23:53;;;;;;;14.52;9.07;;;;;;;8.73;98.90;101265.19;5027404;28;20120;-88
2022/10/20 06:26:23;;;;;;;18.50;8.57;;;;;;;8.85;99.13;101278.22;5050081;28;20123;-87
2022/10/20 06:28:53;;;;;;;13.70;9.40;;;;;;;8.76;99.21;101258.97;5050627;28;20460;-87
2022/10/20 06:31:21;;;;;;;14.07;8.60;;;;;;;8.85;99.09;101279.03;5049393;28;20029;-87
2022/10/20 06:33:47;;;;;;;16.10;9.15;;;;;;;8.79;99.14;101256.19;5051002;28;20040;-84
2022/10/20 06:36:14;;;;;;;14.05;8.77;;;;;;;8.86;99.38;101254.84;5050834;28;20043;-88
2022/10/20 06:38:40;;;;;;;14.50;9.07;;;;;;;8.82;99.55;101248.19;5051165;28;20043;-88
2022/10/20 06:41:09;;;;;;;13.43;9.38;;;;;;;8.75;99.20;101228.84;5048198;28;20052;-85
2022/10/20 06:43:34;;;;;;;14.52;9.75;;;;;;;8.82;99.05;101237.84;5046250;28;20032;-86
2022/10/20 06:46:05;;;;;;;15.52;9.82;;;;;;;8.83;99.32;101239.53;5047401;28;20033;-89
2022/10/20 06:48:32;;;;;;;16.30;9.40;;;;;;;8.87;99.22;101256.47;5047321;28;20028;-86
2022/10/20 06:50:59;;;;;;;14.35;8.38;;;;;;;8.77;99.30;101250.25;5047915;28;20083;-88
2022/10/20 06:53:26;;;;;;;16.85;9.88;;;;;;;8.84;99.54;101261.88;5047511;28;20219;-89
2022/10/20 06:56:14;;;;;;;16.10;9.50;;;;;;;8.91;99.62;101268.28;5047495;28;20071;-89
2022/10/20 06:58:41;;;;;;;15.07;9.35;;;;;;;8.87;99.83;101264.25;5022291;28;20383;-87
2022/10/20 07:01:10;;;;;;;15.73;10.05;;;;;;;8.88;99.51;101252.97;5047690;28;20032;-88
2022/10/20 07:03:37;;;;;;;16.48;9.18;;;;;;;8.89;99.98;101244.28;5049178;28;20301;-90
2022/10/20 07:06:03;;;;;;;15.40;8.93;;;;;;;8.87;99.92;101225.44;5029526;28;20384;-89
2022/10/20 07:08:30;;;;;;;15.60;9.10;;;;;;;8.93;99.54;101225.03;5028480;28;20032;-88
2022/10/20 07:11:00;;;;;;;16.02;9.95;;;;;;;8.91;100.00;101226.91;5030011;28;20477;-89
2022/10/20 07:13:27;;;;;;;14.52;9.95;;;;;;;8.99;99.90;101234.94;5044206;28;20020;-87
2022/10/20 07:15:53;;;;;;;18.40;9.70;;;;;;;9.00;99.96;101236.63;5044290;28;20157;-88
2022/10/20 07:18:19;;;;;;;13.40;8.45;;;;;;;8.95;100.00;101223.19;5047080;28;20095;-88
2022/10/20 07:20:45;;;;;;;14.80;9.55;;;;;;;9.03;100.00;101241.56;5030901;28;20029;-88
2022/10/20 07:23:10;;;;;;;17.00;9.45;;;;;;;9.00;100.00;101226.28;5026221;28;20128;-85
2022/10/20 07:25:35;;;;;;;18.33;9.68;;;;;;;9.00;100.00;101210.75;5028693;28;20052;-88
2022/10/20 07:28:01;;;;;;;18.48;9.57;;;;;;;9.03;100.00;101215.69;5029287;28;20052;-88
2022/10/20 07:30:26;;;;;;;17.10;9.43;;;;;;;9.14;99.93;101232.25;5028985;28;20103;-88
2022/10/20 07:32:51;;;;;;;14.07;8.30;;;;;;;9.14;100.00;101229.66;5035695;28;20471;-88
2022/10/20 07:35:16;;;;;;;16.92;9.45;;;;;;;9.13;100.00;101230.59;5035475;28;20385;-89
2022/10/20 07:37:42;;;;;;;15.43;9.18;;;;;;;9.17;100.00;101229.44;5047351;28;20025;-87
2022/10/20 07:40:08;;;;;;;13.77;9.02;;;;;;;9.17;100.00;101227.69;5044343;28;20024;-88
2022/10/20 07:42:33;;;;;;;17.40;9.20;;;;;;;9.26;100.00;101236.56;5031559;28;20556;-86
2022/10/20 07:44:58;;;;;;;14.05;9.13;;;;;;;9.30;100.00;101238.03;5020525;28;20452;-81
2022/10/20 07:47:25;;;;;;;14.63;8.85;;;;;;;9.34;100.00;101249.81;5046489;28;20436;-80
2022/10/20 07:49:50;;;;;;;17.38;9.65;;;;;;;9.36;100.00;101247.97;5038179;28;20048;-82
2022/10/20 07:52:15;;;;;;;12.80;8.70;;;;;;;9.40;100.00;101244.19;5027175;28;20028;-82
2022/10/20 07:54:41;;;;;;;15.88;9.10;;;;;;;9.40;100.00;101239.03;5043367;28;20525;-82
2022/10/20 07:57:06;;;;;;;15.77;9.20;;;;;;;9.43;100.00;101238.00;5045292;28;20545;-81
2022/10/20 07:59:31;;;;;;;15.13;8.85;;;;;;;9.48;100.00;101236.75;5027319;28;20640;-81
2022/10/20 08:01:57;;;;;;;16.27;9.30;;;;;;;9.46;100.00;101223.09;5043756;28;20444;-82
2022/10/20 08:04:22;;;;;;;16.08;10.30;;;;;;;9.55;100.00;101227.59;5042672;28;20041;-82
2022/10/20 08:06:47;;;;;;;15.93;8.98;;;;;;;9.58;100.00;101222.22;5046132;28;20378;-81
2022/10/20 08:09:13;;;;;;;14.45;9.77;;;;;;;9.66;100.00;101233.78;5038140;28;20036;-81
2022/10/20 08:11:38;;;;;;;14.18;8.98;;;;;;;9.72;100.00;101228.16;5044362;28;20465;-80
2022/10/20 08:14:03;;;;;;;16.92;10.15;;;;;;;9.69;99.85;101212.81;5041597;28;20025;-81
2022/10/20 08:16:29;;;;;;;15.07;9.52;;;;;;;9.78;100.00;101219.94;5033988;28;20029;-81
2022/10/20 08:18:54;;;;;;;17.33;10.52;;;;;;;9.82;100.00;101213.63;5040953;28;20094;-81
2022/10/20 08:21:21;;;;;;;15.65;9.20;;;;;;;9.85;99.87;101208.19;5042311;28;20033;-81
2022/10/20 08:23:49;;;;;;;13.95;9.93;;;;;;;9.96;100.00;101210.84;5046193;28;20021;-81
2022/10/20 08:26:24;;;;;;;16.13;9.93;;;;;;;9.98;100.00;101205.56;5024530;28;20031;-80
2022/10/20 08:28:51;;;;;;;17.42;9.63;;;;;;;10.10;100.00;101218.44;5027429;28;20028;-82
2022/10/20 08:31:17;;;;;;;15.80;9.57;;;;;;;10.13;100.00;101206.19;5027486;28;20484;-83
2022/10/20 08:33:42;;;;;;;15.20;11.13;;;;;;;10.22;100.00;101205.53;5034193;28;20035;-81
2022/10/20 08:36:10;;;;;;;15.52;10.95;;;;;;;10.23;100.00;101196.81;5046096;28;20028;-81
2022/10/20 08:38:36;;;;;;;13.80;9.23;;;;;;;10.34;100.00;101195.09;5026219;28;20473;-81
2022/10/20 08:41:05;;;;;;;14.55;9.90;;;;;;;10.37;99.67;101184.47;5035946;28;20375;-81
2022/10/20 08:43:35;;;;;;;15.30;10.00;;;;;;;10.46;100.00;101195.94;5033114;28;20059;-81
2022/10/20 08:46:01;;;;;;;13.75;9.85;;;;;;;10.46;100.00;101177.78;5041867;28;20060;-82
2022/10/20 08:48:31;;;;;;;14.60;9.80;;;;;;;10.55;99.92;101181.44;5018892;28;20048;-84
2022/10/20 08:50:57;;;;;;;14.63;10.10;;;;;;;10.61;99.93;101192.19;5038757;28;20021;-84
2022/10/20 08:53:24;;;;;;;15.85;11.07;;;;;;;10.63;99.27;101185.13;5025969;28;20035;-84
2022/10/20 08:55:50;;;;;;;16.50;10.38;;;;;;;10.76;100.00;101194.56;5023894;28;20563;-84
2022/10/20 08:58:20;;;;;;;14.07;10.73;;;;;;;10.80;99.66;101190.78;5044289;28;20464;-83
2022/10/20 09:00:46;;;;;;;16.45;11.60;;;;;;;10.84;98.96;101192.22;5042256;28;20029;-84
2022/10/20 09:03:37;;;;;;;15.68;10.35;;;;;;;10.93;99.61;101185.47;5038299;28;20033;-84
2022/10/20 09:06:12;;;;;;;15.82;10.63;;;;;;;10.98;99.21;101180.75;5031724;28;20045;-87
2022/10/20 09:08:38;;;;;;;13.93;9.88;;;;;;;10.98;98.96;101175.56;5044772;28;20072;-82
2022/10/20 09:11:07;;;;;;;15.25;10.45;;;;;;;11.01;98.45;101162.34;5045425;28;20028;-83
2022/10/20 09:13:36;;;;;;;16.48;10.57;;;;;;;11.07;98.58;101157.53;5012180;28;20082;-84
2022/10/20 09:16:37;;;;;;;16.08;11.35;;;;;;;11.17;98.45;101163.63;5009416;28;20057;-83
2022/10/20 09:19:04;;;;;;;16.85;11.43;;;;;;;11.19;98.37;101171.31;5004837;28;20394;-83
2022/10/20 09:21:31;;;;;;;16.60;11.70;;;;;;;11.23;98.13;101151.09;5014189;28;20752;-83
2022/10/20 09:24:02;;;;;;;15.63;11.20;;;;;;;11.32;97.99;101171.16;5010507;28;20108;-83
2022/10/20 09:26:35;;;;;;;18.00;12.13;;;;;;;11.39;97.90;101172.31;5012977;28;20112;-83
2022/10/20 09:29:07;;;;;;;18.05;11.80;;;;;;;11.44;97.26;101170.19;5011429;28;20505;-83
2022/10/20 09:31:37;;;;;;;16.38;13.60;;;;;;;11.50;97.64;101174.06;5002871;28;20029;-83
2022/10/20 09:34:25;;;;;;;15.30;10.80;;;;;;;11.57;97.63;101168.25;5003252;28;20492;-84
2022/10/20 09:37:12;;;;;;;16.63;12.43;;;;;;;11.53;97.43;101148.69;5003336;28;20038;-83
2022/10/20 09:39:46;;;;;;;16.38;10.98;;;;;;;11.69;97.64;101159.47;5005456;28;20021;-84
2022/10/20 09:42:18;;;;;;;15.32;12.70;;;;;;;11.73;97.21;101164.41;5000546;28;20533;-83
2022/10/20 09:45:27;;;;;;;20.52;11.65;;;;;;;11.80;96.97;101170.75;5005403;28;20022;-83
2022/10/20 09:48:07;;;;;;;18.15;10.95;;;;;;;11.82;97.02;101174.94;5006847;28;20029;-84
2022/10/20 09:50:36;;;;;;;18.75;12.02;;;;;;;11.84;97.02;101167.84;5000191;28;20022;-83
2022/10/20 09:53:05;;;;;;;17.23;12.15;;;;;;;11.90;97.32;101166.50;5004584;28;20494;-82
2022/10/20 09:55:40;;;;;;;16.60;12.90;;;;;;;11.88;96.51;101150.22;5005874;28;20022;-82
2022/10/20 09:58:14;;;;;;;16.55;13.63;;;;;;;11.86;96.35;101157.31;5000851;28;20128;-82
2022/10/20 10:00:46;;;;;;;17.77;14.60;;;;;;;11.91;96.92;101157.75;5012705;28;20116;-82
2022/10/20 10:03:22;;;;;;;19.10;12.82;;;;;;;12.01;97.32;101184.66;5008043;28;20053;-83
2022/10/20 10:05:49;;;;;;;16.48;11.48;;;;;;;12.04;97.07;101173.16;4991900;28;20469;-83
2022/10/20 10:08:15;;;;;;;17.88;12.63;;;;;;;12.06;97.11;101171.28;4987754;28;20041;-83
2022/10/20 10:10:43;;;;;;;18.33;11.57;;;;;;;12.09;96.96;101166.63;5000305;28;20033;-83
2022/10/20 10:13:21;;;;;;;18.17;11.48;;;;;;;12.03;96.54;101161.94;4997032;28;20520;-83
2022/10/20 10:15:46;;;;;;;17.88;11.57;;;;;;;12.14;96.05;101153.25;5012400;28;20128;-82
2022/10/20 10:18:21;;;;;;;19.23;14.77;;;;;;;12.16;96.43;101152.19;5013565;28;20579;-82
2022/10/20 10:20:46;;;;;;;16.33;11.20;;;;;;;12.13;95.93;101141.22;5005417;28;20018;-82
2022/10/20 10:23:18;;;;;;;17.25;11.88;;;;;;;12.18;96.59;101145.09;5011525;28;20049;-82
2022/10/20 10:25:43;;;;;;;18.88;13.00;;;;;;;12.11;96.58;101117.13;5003901;28;20033;-82
2022/10/20 10:28:33;;;;;;;18.95;12.38;;;;;;;12.22;96.49;101151.69;5004765;28;20037;-83
2022/10/20 10:31:23;;;;;;;16.75;11.73;;;;;;;12.25;96.38;101149.78;5001034;28;20450;-83
2022/10/20 10:33:54;;;;;;;16.13;11.93;;;;;;;12.20;97.18;101143.16;5001255;28;20378;-83
2022/10/20 10:36:33;;;;;;;18.17;14.55;;;;;;;12.28;96.94;101152.13;5003165;28;20025;-82
2022/10/20 10:38:59;;;;;;;21.45;15.15;;;;;;;12.20;97.38;101139.75;5004214;28;20029;-82
2022/10/20 10:41:40;;;;;;;19.90;14.63;;;;;;;12.22;98.08;101154.28;4994003;28;20105;-82
2022/10/20 10:44:31;;;;;;;17.00;14.23;;;;;;;12.29;98.85;101153.78;5007361;28;20514;-82
2022/10/20 10:47:19;;;;;;;17.17;11.10;;;;;;;12.26;98.75;101141.00;5009418;28;20037;-82
2022/10/20 10:49:56;;;;;;;18.08;11.90;;;;;;;12.31;98.38;101134.47;5006668;28;20671;-82
2022/10/20 10:52:43;;;;;;;19.20;15.60;;;;;;;12.28;99.59;101128.72;4989001;28;20049;-82
2022/10/20 10:55:24;;;;;;;19.95;14.15;;;;;;;12.30;99.27;101137.22;4995770;28;20034;-83
2022/10/20 10:58:21;;;;;;;18.50;13.68;;;;;;;12.29;99.42;101127.75;5007460;28;20351;-82
2022/10/20 11:01:04;;;;;;;17.40;13.98;;;;;;;12.30;99.75;101132.81;5019197;28;20033;-82
2022/10/20 11:03:55;;;;;;;17.77;13.75;;;;;;;12.30;100.00;101130.22;5014638;28;20026;-82
2022/10/20 11:06:47;;;;;;;17.23;11.43;;;;;;;12.31;99.59;101111.06;5002121;28;20501;-82
2022/10/20 11:09:24;;;;;;;16.05;12.02;;;;;;;12.30;100.00;101111.19;5011245;28;20042;-82
2022/10/20 11:12:25;;;;;;;17.83;15.10;;;;;;;12.27;100.00;101101.03;5001902;28;20030;-82
2022/10/20 11:15:15;;;;;;;18.98;13.05;;;;;;;12.30;100.00;101111.19;4943082;29;20051;-83
2022/10/20 11:17:52;;;;;;;20.17;15.52;;;;;;;12.27;100.00;101116.66;4946174;29;20114;-83
2022/10/20 11:20:23;;;;;;;20.20;13.65;;;;;;;12.28;100.00;101115.72;4945704;29;20114;-83
2022/10/20 11:23:21;;;;;;;21.25;15.57;;;;;;;12.28;100.00;101113.94;4946494;29;20039;-82
2022/10/20 11:26:06;;;;;;;22.88;16.20;;;;;;;12.21;100.00;101105.84;4941187;29;20712;-82
2022/10/20 11:28:44;;;;;;;23.58;17.33;;;;;;;12.18;100.00;101098.28;4942508;29;20023;-83
2022/10/20 11:31:35;;;;;;;22.42;13.93;;;;;;;12.25;100.00;101103.78;4945290;29;20053;-82
2022/10/20 11:34:04;;;;;;;21.55;17.55;;;;;;;12.21;100.00;101108.44;4941603;29;20076;-83